Time;durP1;ratioP1;P1;durP2;ratioP2;P2;SDS_P1;SDS_P2;PMS_P1;PMS_P2;Temp;Humidity;BMP_temperature;BMP_pressure;BME280_temperature;BME280_humidity;BME280_pressure;Samples;Min_cycle;Max_cycle;Signal;HPM_P1;HPM_P2
2021/08/04 00:01:46;;;;;;;0.30;0.13;;;12.00;82.60;;;;;;5087517;28;20728;-88
2021/08/04 00:04:13;;;;;;;0.47;0.20;;;12.00;84.60;;;;;;5088543;28;20408;-88
2021/08/04 00:06:41;;;;;;;1.60;0.20;;;12.20;84.50;;;;;;5090193;28;20396;-89
2021/08/04 00:09:08;;;;;;;226.57;11.80;;;12.20;82.10;;;;;;5089803;28;20420;-87
2021/08/04 00:11:35;;;;;;;2.65;0.25;;;12.20;81.10;;;;;;5067847;28;20400;-88
2021/08/04 00:14:02;;;;;;;2.38;0.20;;;12.20;81.90;;;;;;5072466;28;20479;-86
2021/08/04 00:16:30;;;;;;;1.20;0.10;;;12.10;81.80;;;;;;5088211;28;20905;-88
2021/08/04 00:18:58;;;;;;;0.40;0.10;;;12.20;83.10;;;;;;5086198;28;20782;-89
2021/08/04 00:21:25;;;;;;;3.45;0.20;;;12.30;83.00;;;;;;5087733;28;20395;-85
2021/08/04 00:23:52;;;;;;;1.80;0.10;;;12.30;82.50;;;;;;5085482;28;20848;-90
2021/08/04 00:26:19;;;;;;;2.35;0.15;;;12.40;83.20;;;;;;5089451;28;20428;-88
2021/08/04 00:28:46;;;;;;;1.10;0.10;;;12.50;82.10;;;;;;5086612;28;20407;-89
2021/08/04 00:31:13;;;;;;;0.82;0.20;;;12.60;83.50;;;;;;5090062;28;20758;-87
2021/08/04 00:33:40;;;;;;;2.88;0.28;;;12.70;83.50;;;;;;5088898;28;20408;-87
2021/08/04 00:36:07;;;;;;;0.98;0.10;;;12.90;79.10;;;;;;5089678;28;20406;-85
2021/08/04 00:38:34;;;;;;;0.97;0.10;;;13.00;79.00;;;;;;5087644;28;20407;-89
2021/08/04 00:41:03;;;;;;;2.20;0.10;;;12.90;78.50;;;;;;5085007;28;20388;-89
2021/08/04 00:43:30;;;;;;;0.10;0.08;;;12.80;78.60;;;;;;5084293;28;20880;-85
2021/08/04 00:45:57;;;;;;;16.10;0.85;;;12.80;78.40;;;;;;5089200;28;20404;-84
2021/08/04 00:48:24;;;;;;;1.30;0.10;;;12.70;78.80;;;;;;5073517;28;20750;-86
2021/08/04 00:50:51;;;;;;;1.40;0.00;;;12.80;80.60;;;;;;5073162;28;20396;-85
2021/08/04 00:53:27;;;;;;;3.78;0.38;;;13.00;79.30;;;;;;5063202;28;20388;-88
2021/08/04 00:55:59;;;;;;;1.07;0.00;;;13.00;78.20;;;;;;5072292;28;20427;-85
2021/08/04 00:58:56;;;;;;;4.30;0.10;;;13.10;77.50;;;;;;5070550;28;20725;-84
2021/08/04 01:01:28;;;;;;;0.80;0.30;;;13.30;75.40;;;;;;5067824;28;20386;-85
2021/08/04 01:04:29;;;;;;;17.58;1.00;;;13.30;75.40;;;;;;5072808;28;20405;-86
2021/08/04 01:07:14;;;;;;;6.30;0.40;;;13.20;74.80;;;;;;5065207;28;20451;-85
2021/08/04 01:10:12;;;;;;;0.88;0.35;;;13.10;74.70;;;;;;5069420;28;20390;-86
2021/08/04 01:12:56;;;;;;;0.10;0.03;;;13.10;75.60;;;;;;5066607;28;20443;-86
2021/08/04 01:15:25;;;;;;;0.25;0.13;;;13.20;74.00;;;;;;5064095;28;20390;-86
2021/08/04 01:17:54;;;;;;;5.50;0.20;;;13.20;75.10;;;;;;5071788;28;20464;-86
2021/08/04 01:20:29;;;;;;;2.85;0.10;;;13.20;75.60;;;;;;5069362;28;20387;-86
2021/08/04 01:23:04;;;;;;;1.10;0.00;;;13.20;76.10;;;;;;5072069;28;20525;-86
2021/08/04 01:25:54;;;;;;;0.00;0.00;;;13.30;75.80;;;;;;5068571;28;20410;-84
2021/08/04 01:28:46;;;;;;;0.20;0.00;;;13.30;75.00;;;;;;5072197;28;20386;-85
2021/08/04 01:31:21;;;;;;;0.00;0.00;;;13.40;74.30;;;;;;5072010;28;20379;-89
2021/08/04 01:33:51;;;;;;;9.70;0.63;;;13.40;75.40;;;;;;5083824;28;20378;-86
2021/08/04 01:36:20;;;;;;;0.50;0.00;;;13.50;73.10;;;;;;5056162;28;20414;-88
2021/08/04 01:38:51;;;;;;;2.42;0.10;;;13.40;73.00;;;;;;5076501;28;20473;-89
2021/08/04 01:41:19;;;;;;;0.00;0.00;;;13.50;73.70;;;;;;5066066;28;20404;-89
2021/08/04 01:43:50;;;;;;;21.40;1.58;;;13.60;75.60;;;;;;5066476;28;20421;-88
2021/08/04 01:46:19;;;;;;;2.35;0.10;;;13.60;72.90;;;;;;5055046;28;20499;-87
2021/08/04 01:48:47;;;;;;;80.20;3.63;;;13.60;71.80;;;;;;5065712;28;20394;-87
2021/08/04 01:51:16;;;;;;;1.67;0.03;;;13.70;69.00;;;;;;5075921;28;20420;-89
2021/08/04 01:53:49;;;;;;;2.20;0.10;;;13.60;68.50;;;;;;5061592;28;20384;-86
2021/08/04 01:56:16;;;;;;;5.75;0.32;;;13.60;69.60;;;;;;5086745;28;20394;-88
2021/08/04 01:58:45;;;;;;;7.33;0.40;;;13.60;68.30;;;;;;5069129;28;20385;-89
2021/08/04 02:01:13;;;;;;;1.40;0.25;;;13.60;68.60;;;;;;5054300;28;20469;-88
2021/08/04 02:03:40;;;;;;;0.35;0.00;;;13.70;69.00;;;;;;5066717;28;20902;-90
2021/08/04 02:06:36;;;;;;;0.60;0.10;;;13.70;68.90;;;;;;5068233;28;20810;-90
2021/08/04 02:09:20;;;;;;;1.52;0.10;;;13.80;68.80;;;;;;5039233;28;20398;-88
2021/08/04 02:12:05;;;;;;;0.30;0.00;;;13.90;66.70;;;;;;5072823;28;20417;-89
2021/08/04 02:14:43;;;;;;;1.45;0.00;;;13.90;67.70;;;;;;5068886;28;20393;-90
2021/08/04 02:17:30;;;;;;;2.50;0.10;;;13.90;68.60;;;;;;5064231;28;20378;-87
2021/08/04 02:20:10;;;;;;;0.60;0.10;;;14.00;68.40;;;;;;5066526;28;20489;-90
2021/08/04 02:22:42;;;;;;;0.45;0.08;;;14.00;67.50;;;;;;5075145;28;20394;-91
2021/08/04 02:25:23;;;;;;;0.10;0.10;;;14.10;68.30;;;;;;5074504;28;20481;-91
2021/08/04 02:27:53;;;;;;;0.00;0.00;;;14.30;67.90;;;;;;5076247;28;20394;-91
2021/08/04 02:30:21;;;;;;;1.00;0.10;;;14.50;68.20;;;;;;5085180;28;20409;-91
2021/08/04 02:32:51;;;;;;;0.28;0.20;;;14.50;66.60;;;;;;5061794;28;20444;-90
2021/08/04 02:35:18;;;;;;;10.85;0.55;;;14.50;66.00;;;;;;5073712;28;20394;-89
2021/08/04 02:37:45;;;;;;;0.00;0.00;;;14.50;67.00;;;;;;5073040;28;20411;-90
2021/08/04 02:40:14;;;;;;;1.20;0.00;;;14.50;64.20;;;;;;5068743;28;20383;-87
2021/08/04 02:42:43;;;;;;;0.40;0.10;;;14.30;63.60;;;;;;5074162;28;20395;-91
2021/08/04 02:45:11;;;;;;;0.30;0.00;;;14.30;66.20;;;;;;5074232;28;20402;-89
2021/08/04 02:47:39;;;;;;;0.30;0.20;;;14.30;64.60;;;;;;5055750;28;20760;-90
2021/08/04 02:50:08;;;;;;;0.30;0.10;;;14.30;66.10;;;;;;5091447;28;20475;-89
2021/08/04 02:52:36;;;;;;;1.17;0.17;;;14.20;67.30;;;;;;5087821;28;20904;-90
2021/08/04 02:55:04;;;;;;;1.05;0.10;;;14.40;68.00;;;;;;5091303;28;20388;-89
2021/08/04 02:57:31;;;;;;;0.10;0.00;;;14.40;67.30;;;;;;5081694;28;20433;-92
2021/08/04 02:59:58;;;;;;;0.40;0.00;;;14.40;64.70;;;;;;5091876;28;20444;-84
2021/08/04 03:02:25;;;;;;;0.50;0.10;;;14.30;65.50;;;;;;5093509;28;20384;-88
2021/08/04 03:04:53;;;;;;;0.10;0.00;;;14.30;65.50;;;;;;5084948;28;20409;-87
2021/08/04 03:07:19;;;;;;;0.90;0.00;;;14.30;66.40;;;;;;5086923;28;20428;-84
2021/08/04 03:09:46;;;;;;;0.60;0.30;;;14.40;66.10;;;;;;5081932;28;20395;-83
2021/08/04 03:12:13;;;;;;;0.28;0.10;;;14.40;66.30;;;;;;5087062;28;20388;-83
2021/08/04 03:14:40;;;;;;;0.20;0.00;;;14.30;65.90;;;;;;5070358;28;20392;-84
2021/08/04 03:17:08;;;;;;;0.60;0.00;;;14.40;66.90;;;;;;5071743;28;20380;-84
2021/08/04 03:19:35;;;;;;;0.30;0.10;;;14.30;65.20;;;;;;5081283;28;20408;-82
2021/08/04 03:22:02;;;;;;;0.00;0.00;;;14.40;66.20;;;;;;5088677;28;20384;-85
2021/08/04 03:24:29;;;;;;;0.35;0.10;;;14.40;66.80;;;;;;5089092;28;20400;-85
2021/08/04 03:26:56;;;;;;;0.00;0.00;;;14.40;64.70;;;;;;5087655;28;20395;-85
2021/08/04 03:29:23;;;;;;;0.90;0.20;;;14.40;65.30;;;;;;5085434;28;20474;-84
2021/08/04 03:31:54;;;;;;;1.10;0.10;;;14.50;65.70;;;;;;5089785;28;20397;-85
2021/08/04 03:34:21;;;;;;;0.22;0.00;;;14.40;65.70;;;;;;5091024;28;20474;-85
2021/08/04 03:36:48;;;;;;;0.60;0.30;;;14.40;65.20;;;;;;5088838;28;20420;-84
2021/08/04 03:39:15;;;;;;;0.30;0.10;;;14.40;66.50;;;;;;5086321;28;20395;-83
2021/08/04 03:41:42;;;;;;;0.25;0.10;;;14.40;66.60;;;;;;5080304;28;20379;-82
2021/08/04 03:44:09;;;;;;;0.27;0.10;;;14.40;66.00;;;;;;5083478;28;20514;-83
2021/08/04 03:46:36;;;;;;;0.10;0.10;;;14.50;65.70;;;;;;5096841;28;20372;-82
2021/08/04 03:49:03;;;;;;;0.10;0.10;;;14.50;66.30;;;;;;5061482;28;20506;-83
2021/08/04 03:51:34;;;;;;;0.20;0.00;;;14.60;65.90;;;;;;5066789;28;20450;-82
2021/08/04 03:54:01;;;;;;;0.25;0.25;;;14.50;66.10;;;;;;5065986;28;20390;-83
2021/08/04 03:56:28;;;;;;;2.00;0.03;;;14.60;67.10;;;;;;5054825;28;20378;-80
2021/08/04 03:58:55;;;;;;;0.60;0.13;;;14.70;66.70;;;;;;5062514;28;20439;-82
2021/08/04 04:01:22;;;;;;;0.30;0.10;;;14.80;67.30;;;;;;5066915;28;20385;-81
2021/08/04 04:03:51;;;;;;;1.02;0.00;;;14.70;66.10;;;;;;5063735;28;20403;-82
2021/08/04 04:06:17;;;;;;;0.17;0.10;;;14.80;66.20;;;;;;5060001;28;20548;-84
2021/08/04 04:08:44;;;;;;;0.30;0.10;;;14.80;65.90;;;;;;5064986;28;20370;-83
2021/08/04 04:11:11;;;;;;;1.30;0.10;;;14.80;67.10;;;;;;5067140;28;20397;-84
2021/08/04 04:13:38;;;;;;;1.10;0.10;;;14.70;66.30;;;;;;5067482;28;20393;-86
2021/08/04 04:16:06;;;;;;;0.00;0.00;;;14.70;66.90;;;;;;5066858;28;20554;-87
2021/08/04 04:18:33;;;;;;;0.20;0.10;;;14.70;66.80;;;;;;5066466;28;20838;-86
2021/08/04 04:21:00;;;;;;;0.47;0.10;;;14.70;67.00;;;;;;5064078;28;20384;-87
2021/08/04 04:23:27;;;;;;;0.82;0.08;;;14.70;67.20;;;;;;5064059;28;20421;-86
2021/08/04 04:25:54;;;;;;;0.32;0.00;;;14.60;67.80;;;;;;5068537;28;20440;-86
2021/08/04 04:28:22;;;;;;;0.70;0.20;;;14.60;67.50;;;;;;5070372;28;20382;-87
2021/08/04 04:30:49;;;;;;;0.15;0.13;;;14.60;68.30;;;;;;5069852;28;20473;-83
2021/08/04 04:33:16;;;;;;;0.82;0.08;;;14.60;68.00;;;;;;5072840;28;20478;-87
2021/08/04 04:35:46;;;;;;;2.10;0.10;;;14.50;67.10;;;;;;5076340;28;20433;-86
2021/08/04 04:38:13;;;;;;;1.98;0.10;;;14.60;67.70;;;;;;5073123;28;20375;-88
2021/08/04 04:40:40;;;;;;;0.67;0.10;;;14.70;68.10;;;;;;5055829;28;20416;-86
2021/08/04 04:43:07;;;;;;;0.30;0.10;;;14.60;68.30;;;;;;5054077;28;20425;-88
2021/08/04 04:45:34;;;;;;;1.38;0.10;;;14.50;67.30;;;;;;5071169;28;20428;-87
2021/08/04 04:48:03;;;;;;;1.27;0.13;;;14.50;68.90;;;;;;5087059;28;20492;-88
2021/08/04 04:50:32;;;;;;;1.40;0.15;;;14.40;67.90;;;;;;5094398;28;20416;-89
2021/08/04 04:52:59;;;;;;;1.80;0.10;;;14.50;67.80;;;;;;5093917;28;20862;-85
2021/08/04 04:55:26;;;;;;;0.25;0.05;;;14.40;65.80;;;;;;5093715;28;20385;-88
2021/08/04 04:57:53;;;;;;;3.10;0.40;;;14.30;66.70;;;;;;5096975;28;20384;-89
2021/08/04 05:00:20;;;;;;;0.52;0.10;;;14.40;67.80;;;;;;5101769;28;20388;-91
2021/08/04 05:02:47;;;;;;;0.73;0.28;;;14.40;68.70;;;;;;5102159;28;20398;-88
2021/08/04 05:05:14;;;;;;;2.80;0.10;;;14.30;68.30;;;;;;5091508;28;20978;-87
2021/08/04 05:07:41;;;;;;;9.10;0.40;;;14.30;69.00;;;;;;5092198;28;20383;-85
2021/08/04 05:10:08;;;;;;;4.07;0.20;;;14.20;70.00;;;;;;5098446;28;20388;-88
2021/08/04 05:12:35;;;;;;;1.20;0.15;;;14.20;69.70;;;;;;5096984;28;20390;-87
2021/08/04 05:15:03;;;;;;;0.23;0.20;;;14.20;69.60;;;;;;5097848;28;20451;-89
2021/08/04 05:17:30;;;;;;;1.10;0.20;;;14.10;69.10;;;;;;5092470;28;20426;-90
2021/08/04 05:19:57;;;;;;;3.30;0.20;;;14.10;69.90;;;;;;5096409;28;21099;-89
2021/08/04 05:22:25;;;;;;;0.38;0.10;;;14.00;68.90;;;;;;5098116;28;20384;-88
2021/08/04 05:24:52;;;;;;;0.30;0.10;;;13.90;70.60;;;;;;5097970;28;20408;-89
2021/08/04 05:27:19;;;;;;;1.90;0.10;;;13.80;70.60;;;;;;5093179;28;20399;-89
2021/08/04 05:29:46;;;;;;;1.40;0.20;;;13.80;70.90;;;;;;5093540;28;20891;-87
2021/08/04 05:32:13;;;;;;;0.38;0.20;;;13.80;71.30;;;;;;5094027;28;20399;-87
2021/08/04 05:34:40;;;;;;;2.40;0.10;;;13.70;70.90;;;;;;5090538;28;20401;-90
2021/08/04 05:37:07;;;;;;;1.30;0.20;;;13.60;71.10;;;;;;5073677;28;20922;-90
2021/08/04 05:39:34;;;;;;;0.10;0.10;;;13.60;71.30;;;;;;5092816;28;20396;-88
2021/08/04 05:42:02;;;;;;;0.90;0.30;;;13.60;71.20;;;;;;5089248;28;20807;-88
2021/08/04 05:44:29;;;;;;;0.80;0.20;;;13.50;71.40;;;;;;5089943;28;20454;-86
2021/08/04 05:46:57;;;;;;;1.80;0.20;;;13.50;71.70;;;;;;5086005;28;20467;-88
2021/08/04 05:49:24;;;;;;;1.35;0.15;;;13.40;72.30;;;;;;5072410;28;20892;-89
2021/08/04 05:51:51;;;;;;;0.37;0.10;;;13.40;72.00;;;;;;5069941;28;20404;-86
2021/08/04 05:54:19;;;;;;;0.43;0.20;;;13.40;71.10;;;;;;5072663;28;20467;-87
2021/08/04 05:56:47;;;;;;;1.90;0.20;;;13.40;71.70;;;;;;5050787;28;20392;-88
2021/08/04 05:59:14;;;;;;;0.50;0.40;;;13.30;72.10;;;;;;5079156;28;20417;-88
2021/08/04 06:01:41;;;;;;;0.30;0.30;;;13.30;72.40;;;;;;5075703;28;20391;-86
2021/08/04 06:04:08;;;;;;;1.98;0.20;;;13.30;73.10;;;;;;5067984;28;20762;-86
2021/08/04 06:06:35;;;;;;;1.17;0.17;;;13.30;72.80;;;;;;5091295;28;20798;-87
2021/08/04 06:09:02;;;;;;;1.07;0.17;;;13.20;72.60;;;;;;5069962;28;20764;-86
2021/08/04 06:11:29;;;;;;;0.43;0.10;;;13.20;72.50;;;;;;5073376;28;20390;-87
2021/08/04 06:13:56;;;;;;;1.10;0.20;;;13.20;72.50;;;;;;5073924;28;20468;-86
2021/08/04 06:16:23;;;;;;;2.53;0.20;;;13.10;73.60;;;;;;5082880;28;20404;-86
2021/08/04 06:18:50;;;;;;;1.20;0.13;;;13.00;73.80;;;;;;5077691;28;20753;-89
2021/08/04 06:21:17;;;;;;;0.68;0.30;;;12.90;74.70;;;;;;5071017;28;20390;-86
2021/08/04 06:23:47;;;;;;;5.90;0.25;;;12.90;74.80;;;;;;5069792;28;20394;-88
2021/08/04 06:26:15;;;;;;;2.35;0.20;;;12.90;74.90;;;;;;5077546;28;20410;-88
2021/08/04 06:28:43;;;;;;;1.30;0.15;;;12.80;75.60;;;;;;5064035;28;20482;-87
2021/08/04 06:31:11;;;;;;;0.70;0.20;;;12.80;75.20;;;;;;5075986;28;20402;-88
2021/08/04 06:33:38;;;;;;;0.60;0.10;;;12.70;77.30;;;;;;5081750;28;20473;-87
2021/08/04 06:36:05;;;;;;;29.05;16.85;;;12.70;77.50;;;;;;5074154;28;20394;-86
2021/08/04 06:38:33;;;;;;;3.20;0.85;;;12.60;78.20;;;;;;5079980;28;20417;-86
2021/08/04 06:41:00;;;;;;;2.58;0.60;;;12.50;78.70;;;;;;5075722;28;20813;-85
2021/08/04 06:43:27;;;;;;;8.27;1.27;;;12.40;79.90;;;;;;5074283;28;20410;-87
2021/08/04 06:45:54;;;;;;;0.80;0.20;;;12.40;80.10;;;;;;5071383;28;20406;-86
2021/08/04 06:48:21;;;;;;;1.20;0.20;;;12.30;80.50;;;;;;5071252;28;20412;-87
2021/08/04 06:50:48;;;;;;;0.47;0.40;;;12.30;80.90;;;;;;5089718;28;20449;-85
2021/08/04 06:53:15;;;;;;;0.75;0.20;;;12.20;80.10;;;;;;5079084;28;20393;-85
2021/08/04 06:55:42;;;;;;;1.00;0.30;;;12.10;81.00;;;;;;5092544;28;20442;-87
2021/08/04 06:58:09;;;;;;;3.40;0.23;;;12.10;81.40;;;;;;5094671;28;20415;-85
2021/08/04 07:00:36;;;;;;;3.50;0.20;;;12.10;81.20;;;;;;5093065;28;20392;-86
2021/08/04 07:03:03;;;;;;;2.08;0.20;;;12.10;80.70;;;;;;5088223;28;20387;-86
2021/08/04 07:05:30;;;;;;;0.20;0.20;;;12.00;81.40;;;;;;5081133;28;20907;-87
2021/08/04 07:07:57;;;;;;;0.60;0.20;;;11.90;81.40;;;;;;5096676;28;20392;-85
2021/08/04 07:10:27;;;;;;;0.15;0.10;;;11.90;83.40;;;;;;5097537;28;20393;-90
2021/08/04 07:12:54;;;;;;;2.00;0.30;;;11.80;84.00;;;;;;5085101;28;20399;-87
2021/08/04 07:15:21;;;;;;;0.60;0.47;;;11.70;84.30;;;;;;5086460;28;20749;-88
2021/08/04 07:17:50;;;;;;;0.38;0.38;;;11.60;85.00;;;;;;5082354;28;20455;-87
2021/08/04 07:20:22;;;;;;;0.35;0.30;;;11.60;86.10;;;;;;5089745;28;20475;-88
2021/08/04 07:22:51;;;;;;;0.45;0.40;;;11.50;85.90;;;;;;5093788;28;21075;-86
2021/08/04 07:25:18;;;;;;;0.57;0.40;;;11.40;87.20;;;;;;5072198;28;20771;-86
2021/08/04 07:27:45;;;;;;;2.10;0.50;;;11.40;86.60;;;;;;5089430;28;20399;-87
2021/08/04 07:30:13;;;;;;;2.00;0.40;;;11.30;87.50;;;;;;5088188;28;20392;-89
2021/08/04 07:32:40;;;;;;;0.60;0.50;;;11.30;88.90;;;;;;5090076;28;20388;-87
2021/08/04 07:35:08;;;;;;;0.20;0.20;;;11.10;89.70;;;;;;5081950;28;20559;-88
2021/08/04 07:37:36;;;;;;;0.50;0.20;;;11.10;89.10;;;;;;5080000;28;20433;-87
2021/08/04 07:40:10;;;;;;;0.50;0.50;;;11.10;89.60;;;;;;5075455;28;20382;-88
2021/08/04 07:42:38;;;;;;;1.00;0.40;;;11.10;90.10;;;;;;5083278;28;20490;-86
2021/08/04 07:45:06;;;;;;;0.60;0.50;;;11.00;90.20;;;;;;5089254;28;20432;-88
2021/08/04 07:47:33;;;;;;;3.33;0.50;;;11.00;90.60;;;;;;5071429;28;20388;-87
2021/08/04 07:50:00;;;;;;;0.80;0.40;;;10.90;90.80;;;;;;5051940;28;20747;-87
2021/08/04 07:52:27;;;;;;;0.70;0.30;;;10.80;91.20;;;;;;5051542;28;20765;-88
2021/08/04 07:54:54;;;;;;;0.82;0.40;;;10.80;91.20;;;;;;5052280;28;20521;-88
2021/08/04 07:57:21;;;;;;;0.70;0.70;;;10.70;91.80;;;;;;5049994;28;20866;-87
2021/08/04 07:59:48;;;;;;;0.38;0.20;;;10.70;92.00;;;;;;5049266;28;20376;-87
2021/08/04 08:02:15;;;;;;;0.47;0.30;;;10.70;92.00;;;;;;5056378;28;20392;-87
2021/08/04 08:04:43;;;;;;;1.25;0.40;;;10.60;92.10;;;;;;5055594;28;20411;-87
2021/08/04 08:07:10;;;;;;;1.50;0.20;;;10.60;92.00;;;;;;5054448;28;20813;-86
2021/08/04 08:09:37;;;;;;;0.93;0.30;;;10.70;91.90;;;;;;5054842;28;20375;-87
2021/08/04 08:12:05;;;;;;;0.25;0.20;;;10.60;92.40;;;;;;5056395;28;20382;-88
2021/08/04 08:14:32;;;;;;;0.73;0.50;;;10.70;92.60;;;;;;5063672;28;20405;-87
2021/08/04 08:16:59;;;;;;;1.45;0.40;;;10.60;92.90;;;;;;5072197;28;20771;-87
2021/08/04 08:19:28;;;;;;;0.80;0.40;;;10.60;92.70;;;;;;5059412;28;20969;-88
2021/08/04 08:21:55;;;;;;;1.73;0.55;;;10.50;93.10;;;;;;5054579;28;20434;-86
2021/08/04 08:24:22;;;;;;;5.00;1.75;;;10.50;93.50;;;;;;5060474;28;20406;-87
2021/08/04 08:26:49;;;;;;;1.17;0.90;;;10.40;93.80;;;;;;5066276;28;20743;-87
2021/08/04 08:29:16;;;;;;;1.42;1.33;;;10.40;94.10;;;;;;5072661;28;20378;-88
2021/08/04 08:31:43;;;;;;;2.42;2.28;;;10.30;94.40;;;;;;5074561;28;20440;-86
2021/08/04 08:34:11;;;;;;;8.98;7.78;;;10.30;94.90;;;;;;5070824;28;20382;-87
2021/08/04 08:36:41;;;;;;;5.13;4.57;;;10.20;95.30;;;;;;5081015;28;20443;-87
2021/08/04 08:39:10;;;;;;;1.77;1.42;;;10.10;95.90;;;;;;5072386;28;20477;-87
2021/08/04 08:41:38;;;;;;;2.50;0.95;;;10.00;96.40;;;;;;5062984;28;20751;-89
2021/08/04 08:44:07;;;;;;;2.10;0.50;;;10.00;96.50;;;;;;5063237;28;20413;-86
2021/08/04 08:46:34;;;;;;;4.40;3.83;;;10.00;96.80;;;;;;5071487;28;20401;-86
2021/08/04 08:49:02;;;;;;;1.95;1.70;;;9.90;96.90;;;;;;5063077;28;20422;-86
2021/08/04 08:51:29;;;;;;;1.00;0.90;;;9.90;97.20;;;;;;5073752;28;20457;-88
2021/08/04 08:53:57;;;;;;;1.30;1.20;;;9.80;97.30;;;;;;5073618;28;20394;-87
2021/08/04 08:56:24;;;;;;;1.10;0.90;;;9.80;97.80;;;;;;5074139;28;20381;-88
2021/08/04 08:58:54;;;;;;;3.60;0.95;;;9.80;98.20;;;;;;5081483;28;20408;-87
2021/08/04 09:01:53;;;;;;;1.30;1.10;;;9.70;98.30;;;;;;5071381;28;20395;-86
2021/08/04 09:04:21;;;;;;;3.22;1.52;;;9.70;98.40;;;;;;5049089;28;20418;-89
2021/08/04 09:06:51;;;;;;;3.10;2.05;;;9.60;99.10;;;;;;5069351;28;20864;-88
2021/08/04 09:09:21;;;;;;;2.10;1.90;;;9.70;99.10;;;;;;5053159;28;20405;-86
2021/08/04 09:11:54;;;;;;;3.42;2.85;;;9.60;98.90;;;;;;5072025;28;20524;-86
2021/08/04 09:14:30;;;;;;;5.38;2.60;;;9.60;99.40;;;;;;5071190;28;20398;-86
2021/08/04 09:17:12;;;;;;;3.83;2.65;;;9.60;99.70;;;;;;5044313;28;20393;-86
2021/08/04 09:19:47;;;;;;;3.72;2.80;;;9.50;99.70;;;;;;5072196;28;20397;-87
2021/08/04 09:22:16;;;;;;;2.93;2.17;;;9.50;99.70;;;;;;5073311;28;20470;-87
2021/08/04 09:25:09;;;;;;;4.65;1.80;;;9.50;99.80;;;;;;5073201;28;20969;-88
2021/08/04 09:27:49;;;;;;;2.05;1.60;;;9.50;99.90;;;;;;5076151;28;20501;-87
2021/08/04 09:30:26;;;;;;;2.50;1.50;;;9.40;99.90;;;;;;5070483;28;20393;-86
2021/08/04 09:32:54;;;;;;;1.70;1.57;;;9.30;99.90;;;;;;5071763;28;20516;-87
2021/08/04 09:35:23;;;;;;;2.97;1.70;;;9.30;99.90;;;;;;5069821;28;20542;-87
2021/08/04 09:37:50;;;;;;;2.75;1.70;;;9.30;99.90;;;;;;5065891;28;20386;-88
2021/08/04 09:40:21;;;;;;;2.00;1.40;;;9.20;99.90;;;;;;5062198;28;20439;-87
2021/08/04 09:42:53;;;;;;;2.40;1.60;;;9.20;99.90;;;;;;5066245;28;21218;-88
2021/08/04 09:45:36;;;;;;;3.10;1.90;;;9.20;99.90;;;;;;5066607;28;20480;-87
2021/08/04 09:48:10;;;;;;;1.50;1.40;;;9.00;99.90;;;;;;5077335;28;20401;-88
2021/08/04 09:50:47;;;;;;;2.28;1.60;;;9.00;99.90;;;;;;5069459;28;20463;-88
2021/08/04 09:53:38;;;;;;;3.20;2.30;;;9.00;99.90;;;;;;5071464;28;21112;-88
2021/08/04 09:56:13;;;;;;;2.07;1.60;;;9.00;99.90;;;;;;5089041;28;20442;-88
2021/08/04 09:58:47;;;;;;;1.85;1.33;;;8.90;99.90;;;;;;5089237;28;20461;-87
2021/08/04 10:01:22;;;;;;;4.55;1.52;;;8.90;99.90;;;;;;5085757;28;20981;-88
2021/08/04 10:04:05;;;;;;;4.18;1.73;;;8.90;99.90;;;;;;5085434;28;20400;-88
2021/08/04 10:06:39;;;;;;;4.15;1.92;;;8.90;99.90;;;;;;5084665;28;20396;-87
2021/08/04 10:09:09;;;;;;;3.67;2.67;;;8.90;99.90;;;;;;5086341;28;20371;-88
2021/08/04 10:11:44;;;;;;;2.88;2.10;;;8.80;99.90;;;;;;5084946;28;20427;-87
2021/08/04 10:14:16;;;;;;;2.03;1.60;;;8.80;99.90;;;;;;5092778;28;20376;-87
2021/08/04 10:16:45;;;;;;;2.03;1.40;;;8.70;99.90;;;;;;5091351;28;20902;-91
2021/08/04 10:19:13;;;;;;;1.30;1.20;;;8.70;99.90;;;;;;5089139;28;20384;-89
2021/08/04 10:21:43;;;;;;;1.73;1.00;;;8.70;99.90;;;;;;5088079;28;20496;-89
2021/08/04 10:24:13;;;;;;;1.90;1.35;;;8.70;99.90;;;;;;5087059;28;21050;-88
2021/08/04 10:26:40;;;;;;;1.70;1.20;;;8.70;99.90;;;;;;5090934;28;20396;-89
2021/08/04 10:29:09;;;;;;;1.40;1.05;;;8.70;99.90;;;;;;5091427;28;20392;-86
2021/08/04 10:31:37;;;;;;;1.67;0.90;;;8.70;99.90;;;;;;5090704;28;20875;-89
2021/08/04 10:34:05;;;;;;;2.60;1.58;;;8.70;99.90;;;;;;5071247;28;20413;-89
2021/08/04 10:36:37;;;;;;;1.10;1.00;;;8.60;99.90;;;;;;5088458;28;20477;-89
2021/08/04 10:39:11;;;;;;;1.00;1.00;;;8.70;99.90;;;;;;5087654;28;20470;-88
2021/08/04 10:41:42;;;;;;;1.58;1.42;;;8.70;99.90;;;;;;5091448;28;20437;-89
2021/08/04 10:44:22;;;;;;;1.50;1.15;;;8.70;99.90;;;;;;5069953;28;20787;-89
2021/08/04 10:46:49;;;;;;;1.10;1.00;;;8.60;99.90;;;;;;5084027;28;20380;-89
2021/08/04 10:49:22;;;;;;;2.27;1.10;;;8.70;99.90;;;;;;5045177;28;20927;-89
2021/08/04 10:51:55;;;;;;;3.55;1.25;;;8.60;99.90;;;;;;5068582;28;20382;-87
2021/08/04 10:54:23;;;;;;;1.20;1.00;;;8.60;99.90;;;;;;5056376;28;20398;-87
2021/08/04 10:56:53;;;;;;;1.67;0.97;;;8.50;99.90;;;;;;5067404;28;20397;-88
2021/08/04 10:59:27;;;;;;;1.17;1.00;;;8.50;99.90;;;;;;5068349;28;20435;-88
2021/08/04 11:02:14;;;;;;;1.13;1.00;;;8.50;99.90;;;;;;5062342;28;20420;-89
2021/08/04 11:04:44;;;;;;;1.42;0.90;;;8.50;99.90;;;;;;5067618;28;20792;-89
2021/08/04 11:07:15;;;;;;;1.70;1.00;;;8.50;99.90;;;;;;5069906;28;20460;-91
2021/08/04 11:09:46;;;;;;;6.15;2.40;;;8.50;99.90;;;;;;5070114;28;20412;-89
2021/08/04 11:12:16;;;;;;;2.35;1.25;;;8.50;99.90;;;;;;5066806;28;20390;-89
2021/08/04 11:14:54;;;;;;;1.52;1.10;;;8.50;99.90;;;;;;5067890;28;20386;-89
2021/08/04 11:17:54;;;;;;;3.20;1.42;;;8.50;99.90;;;;;;5067173;28;20409;-88
2021/08/04 11:20:21;;;;;;;1.87;0.80;;;8.40;99.90;;;;;;5062061;28;20451;-90
2021/08/04 11:22:53;;;;;;;1.00;0.80;;;8.40;99.90;;;;;;5070112;28;20382;-90
2021/08/04 11:25:42;;;;;;;0.95;0.90;;;8.40;99.90;;;;;;5071034;28;20416;-89
2021/08/04 11:28:15;;;;;;;1.10;0.85;;;8.50;99.90;;;;;;5071089;28;20370;-89
2021/08/04 11:30:51;;;;;;;1.90;0.80;;;8.40;99.90;;;;;;5065501;28;20385;-89
2021/08/04 11:33:27;;;;;;;0.60;0.50;;;8.50;99.90;;;;;;5071615;28;20519;-89
2021/08/04 11:36:30;;;;;;;1.50;0.70;;;8.50;99.90;;;;;;5065379;28;20399;-90
2021/08/04 11:39:06;;;;;;;0.60;0.60;;;8.50;99.90;;;;;;4976026;28;20403;-88
2021/08/04 11:41:37;;;;;;;0.80;0.80;;;8.40;99.90;;;;;;5056979;28;20398;-88
2021/08/04 11:44:26;;;;;;;8.20;7.40;;;8.50;99.90;;;;;;5066911;28;20386;-88
2021/08/04 11:47:10;;;;;;;7.80;7.00;;;8.50;99.90;;;;;;5074785;28;20712;-88
2021/08/04 11:49:49;;;;;;;6.38;5.78;;;8.40;99.90;;;;;;5084809;28;20394;-88
2021/08/04 11:52:19;;;;;;;3.28;3.00;;;8.40;99.90;;;;;;5081364;28;20434;-90
2021/08/04 11:55:08;;;;;;;1.80;1.70;;;8.40;99.90;;;;;;5083604;28;20797;-88
2021/08/04 11:57:46;;;;;;;2.60;1.90;;;8.40;99.90;;;;;;5087389;28;20384;-88
2021/08/04 12:00:23;;;;;;;2.20;1.90;;;8.50;99.90;;;;;;5090308;28;20395;-88
2021/08/04 12:02:50;;;;;;;1.27;1.10;;;8.50;99.90;;;;;;5090155;28;20525;-87
2021/08/04 12:05:19;;;;;;;1.95;1.20;;;8.50;99.90;;;;;;5088535;28;20494;-91
2021/08/04 12:07:46;;;;;;;1.40;1.20;;;8.50;99.90;;;;;;5081514;28;20473;-88
2021/08/04 12:10:15;;;;;;;1.60;1.15;;;8.50;99.90;;;;;;5090119;28;20385;-86
2021/08/04 12:12:45;;;;;;;0.87;0.80;;;8.50;99.90;;;;;;5088124;28;20388;-87
2021/08/04 12:15:20;;;;;;;1.20;0.93;;;8.50;99.90;;;;;;5089339;28;20474;-90
2021/08/04 12:17:50;;;;;;;1.20;1.05;;;8.50;99.90;;;;;;5087253;28;20408;-87
2021/08/04 12:20:28;;;;;;;2.40;1.05;;;8.50;99.90;;;;;;5090433;28;20561;-89
2021/08/04 12:22:59;;;;;;;1.87;1.20;;;8.50;99.90;;;;;;5090875;28;20963;-90
2021/08/04 12:25:27;;;;;;;1.90;1.13;;;8.40;99.90;;;;;;5089837;28;20449;-89
2021/08/04 12:27:58;;;;;;;1.42;0.90;;;8.40;99.90;;;;;;5091558;28;20372;-90
2021/08/04 12:30:52;;;;;;;0.93;0.85;;;8.40;99.90;;;;;;5074018;28;20937;-87
2021/08/04 12:33:21;;;;;;;2.05;0.65;;;8.40;99.90;;;;;;5088137;28;20967;-90
2021/08/04 12:36:46;;;;;;;0.77;0.77;;;8.30;99.90;;;;;;5087272;28;20392;-89
2021/08/04 12:38:53;;;;;;;0.98;0.70;;;8.30;99.90;;;;;;5076704;28;20859;-91
2021/08/04 12:41:23;;;;;;;1.38;0.80;;;8.30;99.90;;;;;;5087171;28;20397;-89
2021/08/04 12:44:04;;;;;;;1.05;0.70;;;8.30;99.90;;;;;;5088529;28;20396;-89
2021/08/04 12:46:34;;;;;;;0.80;0.63;;;8.30;99.90;;;;;;5085329;28;20495;-89
2021/08/04 12:49:01;;;;;;;0.73;0.57;;;8.30;99.90;;;;;;5090902;28;20403;-90
2021/08/04 12:51:29;;;;;;;1.70;0.57;;;8.20;99.90;;;;;;5092153;28;20384;-87
2021/08/04 12:54:00;;;;;;;0.68;0.60;;;8.20;99.90;;;;;;5092374;28;20399;-91
2021/08/04 12:56:31;;;;;;;0.60;0.60;;;8.20;99.90;;;;;;5090122;28;20388;-90
2021/08/04 12:59:02;;;;;;;0.77;0.73;;;8.20;99.90;;;;;;5090813;28;20388;-90
2021/08/04 13:01:40;;;;;;;0.50;0.50;;;8.20;99.90;;;;;;5091217;28;20798;-90
2021/08/04 13:04:18;;;;;;;1.90;0.90;;;8.20;99.90;;;;;;5092472;28;20444;-90
2021/08/04 13:06:51;;;;;;;0.98;0.70;;;8.20;99.90;;;;;;5093417;28;20385;-90
2021/08/04 13:09:23;;;;;;;0.77;0.77;;;8.20;99.90;;;;;;5090846;28;20380;-90